Puerto Banus, Marbella

>

This is an optional block (switch it off / on) in the settings - file ($SITE['banners'] = false;)

You can display ads, any other important text or photo’s using text / html or PHP code.

You can place one or more at the top and or bottom and it can all be different for content / size .



Thunder radar more information blitzortung!


Rain radar  rain snow radar


Visit our other weather sites:

Documentation for the template used

MeteoibericaRed estaciones Meteorologicas

MeteoclimaticRed estaciones Meteorologicas



No particular awareness of the weather is required.    There are no Weather-warnings

Weather Underground History page Text

Daily Summary for January 22, 2018 Units:  Metric    English   Both
« Previous Day
Next Day »
Daily Weekly Monthly Yearly Custom
  Current: High: Low: Average:
Temperature: 17.8 °C 18.1 °C 12.2 °C 15.1 °C
Dew Point: 14.1 °C 14.3 °C 8.2 °C 11.1 °C
Humidity: 79 % 85 % 65 % 77 %
Wind Speed: 4.8 km/h 11.1 km/h 0.0 km/h 4.6 km/h
Wind Gust: 4.8 km/h 11.1 km/h - -
Wind:SW - - SW
Pressure: 1023.9 hPa 1027.0 hPa 1023.9 hPa -
Precipitation: 0.0 mm      
Historical Graphs
 
 
Tabular Data for January 22, 2018
Time Temperature Dew Point Pressure Wind Wind Speed Wind Gust Humidity Rainfall Rate (Hourly)
00:02 16.2 °C 9.6 °C 1026.3 hPa NNE 5.6 km/h 5.6 km/h 65 % 0.0 mm
00:07 16.0 °C 9.9 °C 1026.3 hPa NE 7.4 km/h 7.4 km/h 67 % 0.0 mm
00:12 15.9 °C 10.2 °C 1026.3 hPa NE 7.4 km/h 7.4 km/h 69 % 0.0 mm
00:17 15.8 °C 10.6 °C 1026.3 hPa NE 7.4 km/h 7.4 km/h 71 % 0.0 mm
00:22 16.1 °C 11.3 °C 1026.3 hPa East 11.1 km/h 11.1 km/h 73 % 0.0 mm
00:27 16.3 °C 11.5 °C 1026.3 hPa NNE 6.4 km/h 6.4 km/h 73 % 0.0 mm
00:32 16.1 °C 11.1 °C 1026.3 hPa NNE 3.7 km/h   72 % 0.0 mm
00:37 16.0 °C 10.9 °C 1026.3 hPa North 6.4 km/h 6.4 km/h 72 % 0.0 mm
00:42 15.7 °C 10.6 °C 1026.3 hPa NNW 5.6 km/h 5.6 km/h 72 % 0.0 mm
00:47 15.7 °C 10.8 °C 1026.3 hPa Calm     73 % 0.0 mm
00:52 15.7 °C 10.7 °C 1026.3 hPa Calm     72 % 0.0 mm
00:57 15.7 °C 10.4 °C 1026.3 hPa Calm     71 % 0.0 mm
01:02 15.7 °C 10.2 °C 1026.3 hPa North 6.4 km/h 6.4 km/h 70 % 0.0 mm
01:07 15.6 °C 9.9 °C 1026.3 hPa North 5.6 km/h 5.6 km/h 69 % 0.0 mm
01:12 15.8 °C 9.7 °C 1026.0 hPa North 6.4 km/h 6.4 km/h 67 % 0.0 mm
01:17 16.0 °C 9.7 °C 1026.3 hPa North 5.6 km/h 5.6 km/h 66 % 0.0 mm
01:22 15.7 °C 9.4 °C 1026.0 hPa NE 5.6 km/h 5.6 km/h 66 % 0.0 mm
01:27 15.4 °C 9.1 °C 1026.0 hPa Calm     66 % 0.0 mm
01:32 15.1 °C 9.0 °C 1026.0 hPa North 5.6 km/h 5.6 km/h 67 % 0.0 mm
01:37 14.9 °C 8.9 °C 1026.0 hPa North 5.6 km/h 5.6 km/h 67 % 0.0 mm
01:42 14.6 °C 8.5 °C 1026.0 hPa North 7.4 km/h 7.4 km/h 67 % 0.0 mm
01:47 14.3 °C 8.5 °C 1026.0 hPa North 9.3 km/h 9.3 km/h 68 % 0.0 mm
01:52 14.1 °C 8.3 °C 1026.0 hPa NNE 5.6 km/h 5.6 km/h 68 % 0.0 mm
01:57 14.0 °C 8.2 °C 1025.6 hPa NNW 9.7 km/h 9.7 km/h 68 % 0.0 mm
02:02 14.1 °C 8.4 °C 1025.6 hPa NNW 9.3 km/h 9.3 km/h 69 % 0.0 mm
02:07 14.2 °C 8.6 °C 1025.6 hPa NNW 8.0 km/h 8.0 km/h 69 % 0.0 mm
02:12 14.2 °C 8.6 °C 1025.3 hPa NW 7.4 km/h 7.4 km/h 69 % 0.0 mm
02:17 14.3 °C 8.7 °C 1025.3 hPa Calm     69 % 0.0 mm
02:22 14.3 °C 8.7 °C 1025.3 hPa West 5.6 km/h 5.6 km/h 69 % 0.0 mm
02:27 14.4 °C 8.8 °C 1025.3 hPa NW 5.6 km/h 5.6 km/h 69 % 0.0 mm
02:32 14.4 °C 9.0 °C 1025.3 hPa Calm   1.0 km/h 70 % 0.0 mm
02:37 14.3 °C 9.2 °C 1025.3 hPa Calm     71 % 0.0 mm
02:42 14.3 °C 9.2 °C 1025.3 hPa NW 3.7 km/h 3.7 km/h 71 % 0.0 mm
02:48 14.4 °C 9.4 °C 1025.3 hPa NW 5.6 km/h 5.6 km/h 72 % 0.0 mm
02:53 14.3 °C 9.3 °C 1025.3 hPa NE 3.7 km/h   72 % 0.0 mm
02:58 14.2 °C 9.4 °C 1025.3 hPa Calm     73 % 0.0 mm
03:03 14.3 °C 9.5 °C 1025.3 hPa Calm     73 % 0.0 mm
03:08 14.3 °C 9.8 °C 1025.3 hPa WNW 6.4 km/h 6.4 km/h 74 % 0.0 mm
03:13 14.3 °C 9.5 °C 1025.3 hPa West 3.7 km/h 3.7 km/h 73 % 0.0 mm
03:18 14.2 °C 9.4 °C 1025.3 hPa North 5.6 km/h 5.6 km/h 73 % 0.0 mm
03:23 13.9 °C 9.0 °C 1024.9 hPa Calm     72 % 0.0 mm
03:28 13.7 °C 8.8 °C 1025.3 hPa North 7.4 km/h 7.4 km/h 72 % 0.0 mm
03:33 13.5 °C 8.3 °C 1025.3 hPa North 9.3 km/h 9.3 km/h 71 % 0.0 mm
03:43 12.9 °C 8.2 °C 1025.3 hPa NNE 3.2 km/h 3.2 km/h 73 % 0.0 mm
03:48 13.0 °C 8.4 °C 1025.3 hPa North 6.4 km/h 6.4 km/h 74 % 0.0 mm
03:53 13.0 °C 8.4 °C 1025.3 hPa North 1.9 km/h   74 % 0.0 mm
03:58 13.1 °C 8.5 °C 1025.3 hPa North 1.9 km/h   74 % 0.0 mm
04:03 13.1 °C 8.6 °C 1025.3 hPa Calm     74 % 0.0 mm
04:08 13.2 °C 8.9 °C 1025.3 hPa Calm     75 % 0.0 mm
04:13 13.5 °C 9.2 °C 1025.3 hPa North 8.0 km/h 8.0 km/h 75 % 0.0 mm
04:18 13.6 °C 9.0 °C 1025.3 hPa North 4.8 km/h 4.8 km/h 74 % 0.0 mm
04:23 13.6 °C 9.1 °C 1025.3 hPa Calm     74 % 0.0 mm
04:28 13.6 °C 9.0 °C 1025.3 hPa North 5.6 km/h 5.6 km/h 74 % 0.0 mm
04:33 13.6 °C 9.0 °C 1025.3 hPa North 5.6 km/h 5.6 km/h 74 % 0.0 mm
04:38 13.6 °C 9.0 °C 1025.3 hPa North 1.9 km/h   74 % 0.0 mm
04:43 13.6 °C 8.8 °C 1025.3 hPa Calm     73 % 0.0 mm
04:53 13.6 °C 9.0 °C 1025.3 hPa Calm     74 % 0.0 mm
04:58 13.3 °C 8.6 °C 1025.3 hPa North 5.6 km/h 5.6 km/h 73 % 0.0 mm
05:03 13.3 °C 8.6 °C 1025.3 hPa North 7.4 km/h 7.4 km/h 73 % 0.0 mm
05:08 13.0 °C 8.3 °C 1025.3 hPa NNW 5.6 km/h 5.6 km/h 73 % 0.0 mm
05:13 13.1 °C 8.5 °C 1025.3 hPa NNW 5.6 km/h 5.6 km/h 74 % 0.0 mm
05:18 12.9 °C 8.4 °C 1025.3 hPa NNW 5.6 km/h 5.6 km/h 74 % 0.0 mm
05:23 13.0 °C 8.4 °C 1025.3 hPa Calm     74 % 0.0 mm
05:28 13.3 °C 8.9 °C 1025.3 hPa NNW 5.6 km/h 5.6 km/h 75 % 0.0 mm
05:33 13.5 °C 9.2 °C 1024.9 hPa NNW 3.7 km/h 3.7 km/h 75 % 0.0 mm
05:38 13.6 °C 9.0 °C 1025.3 hPa NNW 3.7 km/h 3.7 km/h 74 % 0.0 mm
05:43 13.6 °C 9.0 °C 1025.3 hPa NNW 3.2 km/h 3.2 km/h 74 % 0.0 mm
05:48 13.4 °C 8.7 °C 1025.3 hPa NNW 3.7 km/h 3.7 km/h 73 % 0.0 mm
05:53 13.6 °C 9.3 °C 1025.3 hPa Calm     75 % 0.0 mm
05:58 13.7 °C 9.3 °C 1025.3 hPa Calm     75 % 0.0 mm
06:03 13.7 °C 9.3 °C 1025.3 hPa Calm     75 % 0.0 mm
06:08 13.7 °C 9.4 °C 1025.3 hPa Calm     75 % 0.0 mm
06:13 13.8 °C 9.7 °C 1025.3 hPa Calm     76 % 0.0 mm
06:23 13.9 °C 9.8 °C 1025.3 hPa Calm     76 % 0.0 mm
06:28 13.6 °C 9.2 °C 1025.3 hPa NNW 5.6 km/h 5.6 km/h 75 % 0.0 mm
06:33 13.4 °C 9.3 °C 1025.3 hPa NNW 3.7 km/h 3.7 km/h 76 % 0.0 mm
06:43 13.4 °C 9.2 °C 1025.6 hPa Calm     76 % 0.0 mm
06:53 13.3 °C 9.3 °C 1025.6 hPa Calm     77 % 0.0 mm
06:58 13.3 °C 9.3 °C 1025.6 hPa Calm     77 % 0.0 mm
07:03 13.2 °C 9.3 °C 1025.6 hPa Calm     77 % 0.0 mm
07:13 13.1 °C 9.6 °C 1025.6 hPa NNW 5.6 km/h 5.6 km/h 79 % 0.0 mm
07:18 13.1 °C 9.6 °C 1025.6 hPa NNW 5.6 km/h 5.6 km/h 79 % 0.0 mm
07:23 12.6 °C 8.8 °C 1025.6 hPa North 5.6 km/h 5.6 km/h 78 % 0.0 mm
07:28 12.5 °C 9.3 °C 1025.6 hPa Calm     81 % 0.0 mm
07:33 12.3 °C 9.0 °C 1025.6 hPa NNW 9.3 km/h 9.3 km/h 80 % 0.0 mm
07:38 12.4 °C 9.4 °C 1025.6 hPa North 5.6 km/h 5.6 km/h 82 % 0.0 mm
07:43 12.6 °C 9.6 °C 1025.6 hPa North 5.6 km/h 5.6 km/h 82 % 0.0 mm
07:48 12.6 °C 9.6 °C 1025.6 hPa NNW 8.0 km/h 8.0 km/h 82 % 0.0 mm
07:58 12.6 °C 9.6 °C 1026.0 hPa NNW 4.8 km/h 4.8 km/h 82 % 0.0 mm
08:03 12.2 °C 9.0 °C 1026.0 hPa NNW 9.3 km/h 9.3 km/h 81 % 0.0 mm
08:13 12.2 °C 9.4 °C 1026.0 hPa Calm     83 % 0.0 mm
08:18 12.2 °C 9.4 °C 1026.0 hPa North 5.6 km/h 5.6 km/h 83 % 0.0 mm
08:24 12.4 °C 9.8 °C 1026.0 hPa Calm     84 % 0.0 mm
08:29 12.4 °C 9.8 °C 1026.0 hPa North 5.6 km/h 5.6 km/h 84 % 0.0 mm
08:34 12.4 °C 9.8 °C 1026.0 hPa North 5.6 km/h 5.6 km/h 84 % 0.0 mm
08:39 12.6 °C 9.9 °C 1026.3 hPa North 3.7 km/h 3.7 km/h 84 % 0.0 mm
08:49 12.2 °C 9.4 °C 1026.3 hPa North 5.6 km/h 5.6 km/h 83 % 0.0 mm
08:59 12.6 °C 10.1 °C 1026.3 hPa North 5.6 km/h 5.6 km/h 85 % 0.0 mm
09:04 12.6 °C 9.9 °C 1026.3 hPa North 3.7 km/h 3.7 km/h 84 % 0.0 mm
09:09 12.7 °C 10.2 °C 1026.3 hPa Calm     85 % 0.0 mm
09:14 12.8 °C 10.4 °C 1026.3 hPa North 3.2 km/h 3.2 km/h 85 % 0.0 mm
09:19 12.8 °C 10.2 °C 1026.3 hPa North 5.6 km/h 5.6 km/h 84 % 0.0 mm
09:24 12.9 °C 10.5 °C 1026.3 hPa North 5.6 km/h 5.6 km/h 85 % 0.0 mm
09:29 13.2 °C 10.7 °C 1026.3 hPa North 5.6 km/h 5.6 km/h 85 % 0.0 mm
09:39 13.6 °C 11.1 °C 1026.3 hPa North 1.9 km/h 1.9 km/h 85 % 0.0 mm
09:49 13.8 °C 11.1 °C 1026.6 hPa Calm     84 % 0.0 mm
09:59 14.1 °C 11.4 °C 1026.6 hPa Calm     84 % 0.0 mm
10:04 14.2 °C 11.6 °C 1026.6 hPa Calm     84 % 0.0 mm
10:09 14.5 °C 11.8 °C 1026.6 hPa Calm     84 % 0.0 mm
10:14 14.7 °C 12.1 °C 1026.6 hPa North 3.7 km/h 3.7 km/h 84 % 0.0 mm
10:19 14.9 °C 12.1 °C 1026.6 hPa Calm     83 % 0.0 mm
10:24 15.2 °C 12.3 °C 1026.6 hPa North 1.9 km/h 1.9 km/h 83 % 0.0 mm
10:29 15.4 °C 12.6 °C 1026.6 hPa North 3.7 km/h 3.7 km/h 83 % 0.0 mm
10:39 15.4 °C 12.2 °C 1027.0 hPa North 5.6 km/h 5.6 km/h 81 % 0.0 mm
10:44 15.4 °C 12.3 °C 1027.0 hPa NNE 5.6 km/h 5.6 km/h 82 % 0.0 mm
10:49 15.6 °C 12.5 °C 1027.0 hPa NNE 1.9 km/h 1.9 km/h 82 % 0.0 mm
10:54 15.8 °C 12.7 °C 1027.0 hPa Calm     82 % 0.0 mm
10:59 15.9 °C 12.8 °C 1027.0 hPa NNE 3.7 km/h 3.7 km/h 82 % 0.0 mm
11:04 16.0 °C 12.9 °C 1027.0 hPa Calm     82 % 0.0 mm
11:09 16.1 °C 13.1 °C 1027.0 hPa Calm     82 % 0.0 mm
11:14 16.3 °C 13.2 °C 1027.0 hPa Calm     82 % 0.0 mm
11:19 16.3 °C 13.1 °C 1027.0 hPa Calm     81 % 0.0 mm
11:24 16.4 °C 13.1 °C 1027.0 hPa NNE 5.6 km/h 5.6 km/h 81 % 0.0 mm
11:29 16.3 °C 13.1 °C 1027.0 hPa NNE 5.6 km/h 5.6 km/h 81 % 0.0 mm
11:34 16.3 °C 13.2 °C 1027.0 hPa NNE 6.4 km/h 6.4 km/h 82 % 0.0 mm
11:39 16.2 °C 13.1 °C 1027.0 hPa WSW 5.6 km/h 5.6 km/h 82 % 0.0 mm
11:44 16.1 °C 13.1 °C 1027.0 hPa WSW 3.7 km/h 3.7 km/h 82 % 0.0 mm
11:59 16.2 °C 13.3 °C 1026.6 hPa WSW 5.6 km/h 5.6 km/h 83 % 0.0 mm
12:04 16.2 °C 13.1 °C 1026.6 hPa WSW 5.6 km/h 5.6 km/h 82 % 0.0 mm
12:09 16.2 °C 13.1 °C 1026.6 hPa WSW 5.6 km/h 5.6 km/h 82 % 0.0 mm
12:19 16.2 °C 12.9 °C 1026.6 hPa SW 5.6 km/h 5.6 km/h 81 % 0.0 mm
12:24 16.3 °C 13.0 °C 1026.6 hPa SW 5.6 km/h 5.6 km/h 81 % 0.0 mm
12:29 16.2 °C 12.8 °C 1026.3 hPa SW 5.6 km/h 5.6 km/h 80 % 0.0 mm
12:39 16.3 °C 12.9 °C 1026.3 hPa SW 5.6 km/h 5.6 km/h 80 % 0.0 mm
12:44 16.3 °C 12.6 °C 1026.3 hPa SW 5.6 km/h 5.6 km/h 79 % 0.0 mm
12:49 16.2 °C 12.2 °C 1026.3 hPa SW 7.4 km/h 7.4 km/h 77 % 0.0 mm
12:54 16.2 °C 12.0 °C 1026.0 hPa SW 5.6 km/h 5.6 km/h 76 % 0.0 mm
12:59 16.4 °C 12.2 °C 1026.0 hPa SW 5.6 km/h 5.6 km/h 76 % 0.0 mm
13:04 16.7 °C 12.7 °C 1026.0 hPa SW 5.6 km/h 5.6 km/h 77 % 0.0 mm
13:09 16.9 °C 12.8 °C 1026.0 hPa SW 6.4 km/h 6.4 km/h 77 % 0.0 mm
13:14 16.9 °C 12.8 °C 1026.0 hPa SW 8.0 km/h 8.0 km/h 77 % 0.0 mm
13:19 16.8 °C 12.5 °C 1025.6 hPa SW 9.7 km/h 9.7 km/h 76 % 0.0 mm
13:24 16.7 °C 12.4 °C 1025.6 hPa SW 9.3 km/h 9.3 km/h 76 % 0.0 mm
13:29 16.7 °C 12.7 °C 1025.6 hPa SW 7.4 km/h 7.4 km/h 77 % 0.0 mm
13:34 16.7 °C 12.4 °C 1025.6 hPa SW 9.7 km/h 9.7 km/h 76 % 0.0 mm
13:39 16.6 °C 12.3 °C 1025.3 hPa SW 9.3 km/h 9.3 km/h 76 % 0.0 mm
13:44 16.5 °C 12.3 °C 1025.3 hPa SW 9.7 km/h 9.7 km/h 76 % 0.0 mm
13:49 16.6 °C 12.5 °C 1025.3 hPa SW 8.0 km/h 8.0 km/h 77 % 0.0 mm
13:54 16.6 °C 12.6 °C 1025.3 hPa SW 7.4 km/h 7.4 km/h 77 % 0.0 mm
13:59 16.7 °C 12.7 °C 1025.3 hPa SW 6.4 km/h 6.4 km/h 77 % 0.0 mm
14:04 16.9 °C 12.9 °C 1024.9 hPa SW 7.4 km/h 7.4 km/h 77 % 0.0 mm
14:10 17.0 °C 13.1 °C 1024.9 hPa WSW 7.4 km/h 7.4 km/h 78 % 0.0 mm
14:15 17.1 °C 13.2 °C 1024.9 hPa SW 8.0 km/h 8.0 km/h 78 % 0.0 mm
14:20 17.2 °C 13.1 °C 1024.9 hPa SW 9.3 km/h 9.3 km/h 77 % 0.0 mm
14:25 17.2 °C 13.1 °C 1024.9 hPa SW 8.0 km/h 8.0 km/h 77 % 0.0 mm
14:35 17.2 °C 13.3 °C 1024.6 hPa WSW 7.4 km/h 7.4 km/h 78 % 0.0 mm
14:40 17.2 °C 13.3 °C 1024.6 hPa WSW 7.4 km/h 7.4 km/h 78 % 0.0 mm
14:45 17.2 °C 13.3 °C 1024.6 hPa SW 9.3 km/h 9.3 km/h 78 % 0.0 mm
14:50 17.2 °C 13.3 °C 1024.6 hPa WSW 8.0 km/h 9.7 km/h 78 % 0.0 mm
15:00 17.2 °C 13.5 °C 1024.6 hPa WSW 8.0 km/h 9.7 km/h 79 % 0.0 mm
15:05 17.2 °C 13.5 °C 1024.6 hPa WSW 4.8 km/h 9.7 km/h 79 % 0.0 mm
15:10 17.3 °C 13.6 °C 1024.3 hPa WSW 5.6 km/h 5.6 km/h 79 % 0.0 mm
15:20 17.6 °C 13.9 °C 1024.3 hPa WSW 8.0 km/h 8.0 km/h 79 % 0.0 mm
15:25 17.7 °C 14.0 °C 1024.3 hPa SW 5.6 km/h 5.6 km/h 79 % 0.0 mm
15:30 17.7 °C 14.1 °C 1024.3 hPa WSW 3.2 km/h 6.4 km/h 79 % 0.0 mm
15:35 17.8 °C 14.1 °C 1024.3 hPa SW 3.2 km/h 6.4 km/h 79 % 0.0 mm
15:40 17.8 °C 14.2 °C 1024.3 hPa SW 3.7 km/h 3.7 km/h 79 % 0.0 mm
15:45 17.9 °C 14.2 °C 1024.3 hPa SW 4.8 km/h 6.4 km/h 79 % 0.0 mm
15:50 17.9 °C 14.2 °C 1024.3 hPa SW 5.6 km/h 5.6 km/h 79 % 0.0 mm
15:55 17.9 °C 14.2 °C 1024.3 hPa SW 6.4 km/h 6.4 km/h 79 % 0.0 mm
16:00 17.9 °C 14.0 °C 1024.3 hPa SW 3.2 km/h 8.0 km/h 78 % 0.0 mm
16:05 17.9 °C 14.2 °C 1024.3 hPa SW 5.6 km/h 5.6 km/h 79 % 0.0 mm
16:10 18.1 °C 14.3 °C 1024.3 hPa SW 5.6 km/h 5.6 km/h 79 % 0.0 mm
16:15 18.1 °C 14.3 °C 1024.3 hPa SW 3.2 km/h 4.8 km/h 79 % 0.0 mm
16:20 18.1 °C 14.3 °C 1023.9 hPa SW 5.6 km/h 5.6 km/h 79 % 0.0 mm
16:25 18.0 °C 14.3 °C 1023.9 hPa SW 3.2 km/h 6.4 km/h 79 % 0.0 mm
16:30 17.9 °C 14.2 °C 1023.9 hPa SW 5.6 km/h 5.6 km/h 79 % 0.0 mm
16:35 17.9 °C 14.2 °C 1023.9 hPa SW 6.4 km/h 6.4 km/h 79 % 0.0 mm
16:40 17.9 °C 14.2 °C 1023.9 hPa SW 3.2 km/h 6.4 km/h 79 % 0.0 mm
16:45 17.9 °C 14.2 °C 1024.3 hPa SW 4.8 km/h 8.0 km/h 79 % 0.0 mm
16:50 17.9 °C 14.2 °C 1023.9 hPa SW 7.4 km/h 7.4 km/h 79 % 0.0 mm
16:55 17.9 °C 14.1 °C 1023.9 hPa SW 4.8 km/h 8.0 km/h 78 % 0.0 mm
17:00 17.9 °C 14.1 °C 1023.9 hPa SW 8.0 km/h 8.0 km/h 78 % 0.0 mm
17:05 17.9 °C 14.1 °C 1023.9 hPa SW 4.8 km/h 8.0 km/h 78 % 0.0 mm
17:10 17.9 °C 14.1 °C 1024.3 hPa SW 5.6 km/h 5.6 km/h 78 % 0.0 mm
17:15 17.9 °C 14.0 °C 1023.9 hPa SW 6.4 km/h 6.4 km/h 78 % 0.0 mm
17:20 17.8 °C 13.9 °C 1023.9 hPa SW 5.6 km/h 5.6 km/h 78 % 0.0 mm
17:25 17.8 °C 14.1 °C 1023.9 hPa SW 3.2 km/h 4.8 km/h 79 % 0.0 mm
17:30 17.8 °C 14.1 °C 1023.9 hPa SW 4.8 km/h 4.8 km/h 79 % 0.0 mm
Puerto Banus, Marbella
Compliments of Weather Underground - 1.75 mb

Script developed by  Jim McMurry - jmcmurry@mwt.net Adapted for the template by  Wim van der Kuil - Leuven-Template.eu

You find our weather info also at:

Weather Underground

Iberian Peninsula Weather Network